Flight Track Log - Related Links

Times and Time Zones

All times are in EDT time to prevent confusion due to time zone crossing. See the UAL5822 flight status page for this flight to view local times or setup timezone preferences in your user account.

Time Position Orientation Groundspeed Altitude Reporting Facility
EDT Latitude Longitude Course Direction KTS MPH feet Rate Location/Type
Fri 07:25:46 AM 42.9500 -71.4500 270° West 157 181 1,000  Level KA90
Fri 07:27:04 AM 43.0050 -71.4861 334° Northwest 204 235 3,300 1,957 Climbing Boston Center
Fri 07:28:04 AM 43.0472 -71.5650 306° West 218 251 5,500 2,350 Climbing Boston Center
Fri 07:29:04 AM 43.0792 -71.6328 303° West 238 274 8,000 2,200 Climbing Boston Center
Fri 07:30:04 AM 43.1150 -71.7233 298° West 244 281 9,900 1,300 Climbing Boston Center
Fri 07:31:00 AM 42.9501 -72.1458 270° West  Level FlightAware Approximate
Fri 07:31:04 AM 43.1158 -71.8372 271° West 278 320 10,600  Level Boston Center
Fri 07:32:04 AM 43.1206 -71.9567 273° West 306 352 12,200 1,800 Climbing Boston Center
Fri 07:33:04 AM 43.1231 -72.0761 272° West 321 369 14,200 1,800 Climbing Boston Center
Fri 07:34:04 AM 43.1275 -72.1956 273° West 321 369 15,800 1,600 Climbing Boston Center
Fri 07:35:04 AM 43.1319 -72.3122 273° West 316 364 17,400 1,350 Climbing Boston Center
Fri 07:36:04 AM 43.1339 -72.4286 271° West 311 358 18,500 1,250 Climbing Boston Center
Fri 07:37:04 AM 43.1361 -72.5483 271° West 311 358 19,900 1,300 Climbing Boston Center
Fri 07:38:04 AM 43.1400 -72.6678 273° West 311 358 21,100 1,200 Climbing Boston Center
Fri 07:39:04 AM 43.1417 -72.7958 271° West 324 373 22,300 1,200 Climbing Boston Center
Fri 07:40:04 AM 43.1456 -72.9211 272° West 329 379 23,500 1,100 Climbing Boston Center
Fri 07:41:04 AM 43.1472 -73.0206 271° West 329 379 24,500 1,200 Climbing Boston Center
Fri 07:42:04 AM 43.1503 -73.1714 272° West 329 379 25,900 1,200 Climbing Boston Center
Fri 07:43:04 AM 43.1517 -73.2994 271° West 329 379 26,900 950 Climbing Boston Center
Fri 07:44:04 AM 43.1528 -73.4078 271° West 329 379 27,800 864 Climbing Boston Center
Fri 07:45:16 AM 43.1539 -73.5300 271° West 329 379 28,800 1,045 Climbing Boston Center
Fri 07:46:16 AM 43.1542 -73.6867 270° West 334 384 30,100 1,100 Climbing Boston Center
Fri 07:47:16 AM 43.1569 -73.8261 272° West 334 384 31,000 950 Climbing Boston Center
Fri 07:48:16 AM 43.1572 -73.9514 270° West 334 384 32,000 1,000 Climbing Boston Center
Fri 07:49:16 AM 43.1597 -74.0767 272° West 334 384 33,000 1,000 Climbing Boston Center
Fri 07:50:16 AM 43.1600 -74.2078 270° West 334 384 34,000 1,000 Climbing Boston Center
Fri 07:51:16 AM 43.1619 -74.3358 271° West 334 384 35,000 950 Climbing Boston Center
Fri 07:52:16 AM 43.1619 -74.4639 270° West 334 384 35,900 500 Climbing Boston Center
Fri 07:53:16 AM 43.1639 -74.5892 271° West 334 384 36,000 50 Climbing Boston Center
Fri 07:54:16 AM 43.1631 -74.7317 270° West 350 403 36,000  Level Boston Center
Fri 07:55:16 AM 43.1642 -74.8767 271° West 372 428 36,000 -50 Level Boston Center
Fri 07:56:16 AM 43.1653 -75.0219 271° West 384 442 35,900  Descending Boston Center
Fri 07:57:16 AM 43.1639 -75.1672 269° West 384 442 36,000 50 Climbing Boston Center
Fri 07:58:16 AM 43.1653 -75.2839 271° West 384 442 36,000  Level Boston Center
Fri 07:59:16 AM 43.1653 -75.4464 270° West 384 442 36,000  Level Boston Center
Fri 08:00:16 AM 43.1656 -75.5944 270° West 384 442 36,000  Level Boston Center
Fri 08:01:16 AM 43.1631 -75.7481 269° West 389 448 36,000 -50 Level Boston Center
Fri 08:02:16 AM 43.1650 -75.8992 271° West 399 459 35,900  Descending Boston Center
Fri 08:04:21 AM 43.1619 -76.2253 269° West 397 457 36,000 32 Climbing Cleveland Center
Fri 08:05:21 AM 43.1608 -76.3706 269° West 397 457 36,000  Level Cleveland Center
Fri 08:06:21 AM 43.1600 -76.5158 270° West 391 450 36,000  Level Cleveland Center
Fri 08:07:21 AM 43.1611 -76.6694 271° West 391 450 36,000  Level Cleveland Center
Fri 08:08:21 AM 43.1575 -76.8178 268° West 391 450 36,000  Level Cleveland Center
Fri 08:09:21 AM 43.1583 -76.9686 270° West 391 450 36,000  Level Cleveland Center
Fri 08:10:21 AM 43.1586 -77.1167 270° West 396 456 36,000  Level Cleveland Center
Fri 08:11:21 AM 43.1564 -77.2533 269° West 396 456 36,000  Level Cleveland Center
Fri 08:12:21 AM 43.1564 -77.4014 270° West 396 456 36,000  Level Cleveland Center
Fri 08:13:21 AM 43.1519 -77.5467 268° West 396 456 36,000  Level Cleveland Center
Fri 08:14:21 AM 43.1517 -77.6947 270° West 396 456 36,000  Level Cleveland Center
Fri 08:15:21 AM 43.1508 -77.8400 270° West 396 456 36,000  Level Cleveland Center
Fri 08:16:21 AM 43.1481 -77.9853 269° West 391 450 36,000  Level Cleveland Center
Fri 08:17:21 AM 43.1469 -78.1333 269° West 391 450 36,000  Level Cleveland Center
Fri 08:18:21 AM 43.1439 -78.2786 268° West 386 444 36,000  Level Cleveland Center
Fri 08:19:21 AM 43.1425 -78.4236 269° West 386 444 36,000  Level Cleveland Center
Fri 08:20:21 AM 43.1367 -78.5689 267° West 386 444 36,000  Level Cleveland Center
Fri 08:21:21 AM 43.1328 -78.7142 268° West 386 444 36,000  Level Cleveland Center
Fri 08:22:21 AM 43.1311 -78.8622 269° West 386 444 36,000  Level Cleveland Center
Fri 08:23:21 AM 43.1247 -79.0044 267° West 386 444 36,000  Level Cleveland Center
Fri 08:24:29 AM 43.1167 -79.1500 266° West 390 449 36,000  Level Toronto Center
Fri 08:25:29 AM 43.1000 -79.3167 262° West 390 449 36,000  Level Toronto Center
Fri 08:26:29 AM 43.1000 -79.4500 270° West 390 449 36,000  Level Toronto Center
Fri 08:27:29 AM 43.1000 -79.5833 270° West 380 437 36,000  Level Toronto Center
Fri 08:28:29 AM 43.0833 -79.7500 262° West 370 426 36,000  Level Toronto Center
Fri 08:29:29 AM 43.0833 -79.8833 270° West 370 426 36,000  Level Toronto Center
Fri 08:30:29 AM 43.0833 -80.0167 270° West 370 426 36,000  Level Toronto Center
Fri 08:31:29 AM 43.0667 -80.1500 260° West 370 426 36,000  Level Toronto Center
Fri 08:32:29 AM 43.0667 -80.3000 270° West 370 426 36,000  Level Toronto Center
Fri 08:33:29 AM 43.0667 -80.4333 270° West 370 426 36,000  Level Toronto Center
Fri 08:34:29 AM 43.0500 -80.5833 261° West 380 437 36,000  Level Toronto Center
Fri 08:35:29 AM 43.0500 -80.7333 270° West 380 437 36,000  Level Toronto Center
Fri 08:36:29 AM 43.0333 -80.8833 261° West 380 437 36,000  Level Toronto Center
Fri 08:37:29 AM 43.0167 -81.0167 260° West 380 437 36,000  Level Toronto Center
Fri 08:38:29 AM 43.0167 -81.1667 270° West 380 437 36,000  Level Toronto Center
Fri 08:39:29 AM 43.0167 -81.3000 270° West 380 437 36,000  Level Toronto Center
Fri 08:40:29 AM 43.0167 -81.4333 270° West 380 437 36,000  Level Toronto Center
Fri 08:41:29 AM 43.0167 -81.6000 270° West 380 437 36,000  Level Toronto Center
Fri 08:42:29 AM 43.0167 -81.7333 270° West 380 437 36,000  Level Toronto Center
Fri 08:43:29 AM 43.0167 -81.8667 270° West 370 426 36,000  Level Toronto Center
Fri 08:44:29 AM 43.0000 -82.0000 260° West 370 426 36,000  Level Toronto Center
Fri 08:45:29 AM 43.0000 -82.1333 270° West 370 426 36,000  Level Toronto Center
Fri 08:46:29 AM 43.0000 -82.3000 270° West 370 426 36,000  Level Toronto Center
Fri 08:47:29 AM 43.0000 -82.4167 270° West 370 426 36,000  Level Toronto Center
Fri 08:48:29 AM 43.0000 -82.5667 270° West 360 414 36,000  Level Toronto Center
Fri 08:49:45 AM 42.9983 -82.7519 269° West 366 421 36,000  Level Cleveland Center
Fri 08:50:45 AM 42.9958 -82.8767 268° West 366 421 36,000  Level Cleveland Center
Fri 08:51:45 AM 42.9911 -83.0128 267° West 366 421 36,000  Level Cleveland Center
Fri 08:52:45 AM 42.9881 -83.1519 268° West 366 421 36,000  Level Cleveland Center
Fri 08:53:45 AM 42.9831 -83.2850 267° West 366 421 36,000 -100 Level Cleveland Center
Fri 08:54:45 AM 42.9797 -83.4211 268° West 366 421 35,800 -600 Descending Cleveland Center
Fri 08:55:45 AM 42.9742 -83.5542 267° West 360 414 34,800 -1,000 Descending Cleveland Center
Fri 08:56:45 AM 42.9689 -83.6789 267° West 349 402 33,800 -950 Descending Cleveland Center
Fri 08:57:45 AM 42.9589 -83.8117 264° West 344 396 32,900 -900 Descending Cleveland Center
Fri 08:58:45 AM 42.9467 -83.9472 263° West 357 411 32,000 -450 Descending Cleveland Center
Fri 08:59:45 AM 42.9342 -84.0883 263° West 368 423 32,000  Level Cleveland Center
Fri 09:00:45 AM 42.9175 -84.2264 261° West 368 423 32,000  Level Cleveland Center
Fri 09:01:45 AM 42.9022 -84.3786 262° West 368 423 32,000  Level Cleveland Center
Fri 09:02:30 AM 42.8947 -84.4856 265° West 374 430 32,000  Level Chicago Center
Fri 09:03:32 AM 42.8797 -84.6272 262° West 378 435 32,000  Level Chicago Center
Fri 09:04:34 AM 42.8644 -84.7683 262° West 378 435 32,000  Level Chicago Center
Fri 09:05:36 AM 42.8500 -84.9100 262° West 378 435 32,000  Level Chicago Center
Fri 09:06:37 AM 42.8356 -85.0508 262° West 377 434 32,000  Level Chicago Center
Fri 09:07:39 AM 42.8206 -85.1908 262° West 374 430 32,000  Level Chicago Center
Fri 09:08:41 AM 42.8044 -85.3308 261° West 374 430 32,000 -339 Level Chicago Center
Fri 09:09:43 AM 42.7894 -85.4706 262° West 374 430 31,300 -1,610 Descending Chicago Center
Fri 09:10:44 AM 42.7625 -85.6347 257° West 370 426 28,700 -2,244 Descending Chicago Center
Fri 09:11:46 AM 42.7361 -85.7786 256° West 382 440 26,700 -2,032 Descending Chicago Center
Fri 09:12:48 AM 42.7092 -85.9278 256° West 397 457 24,500 -2,032 Descending Chicago Center
Fri 09:13:50 AM 42.6814 -86.0756 256° West 401 461 22,500 -2,000 Descending Chicago Center
Fri 09:14:51 AM 42.6553 -86.2222 256° West 399 459 20,400 -1,512 Descending Chicago Center
Fri 09:15:53 AM 42.6283 -86.3642 256° West 390 449 19,400 -816 Descending Chicago Center
Fri 09:16:56 AM 42.6011 -86.5086 256° West 394 453 18,700 -1,113 Descending Chicago Center
Fri 09:17:57 AM 42.5742 -86.6494 255° West 389 448 17,100 -2,146 Descending Chicago Center
Fri 09:18:59 AM 42.5389 -86.8092 253° West 371 427 14,300 -2,323 Descending Chicago Center
Fri 09:20:01 AM 42.5039 -86.9344 249° West 359 413 12,300 -1,887 Descending Chicago Center
Fri 09:21:03 AM 42.4706 -87.0522 249° West 338 389 10,400 -1,122 Descending Chicago Center
Fri 09:22:04 AM 42.4406 -87.1661 250° West 323 372 10,000 -634 Descending Chicago Center
Fri 09:23:06 AM 42.4139 -87.2594 249° West 270 311 9,100 -484 Descending Chicago Center
Fri 09:24:08 AM 42.3900 -87.3506 250° West 261 300 9,000 -435 Descending Chicago Center
Fri 09:25:10 AM 42.3492 -87.4467 240° Southwest 272 313 8,200 -919 Descending Chicago Center
Fri 09:26:12 AM 42.3081 -87.5278 236° Southwest 265 305 7,100 -581 Descending Chicago Center
Fri 09:27:14 AM 42.2664 -87.6014 233° Southwest 251 289 7,000 -581 Descending Chicago Center
Fri 09:28:16 AM 42.2014 -87.6728 219° Southwest 253 291 5,900 -1,113 Descending Chicago Center
Fri 09:29:18 AM 42.1492 -87.7297 219° Southwest 244 281 4,700 -1,161 Descending Chicago Center
Fri 09:30:20 AM 42.1039 -87.7817 220° Southwest 225 259 3,500 -878 Descending Chicago Center
Fri 09:31:21 AM 42.0625 -87.8258 218° Southwest 208 239 2,900 -934 Descending Chicago Center
Fri 09:32:22 AM 42.0333 -87.8667 226° Southwest 129 148 1,600 -992 Descending Chicago TRACON
Fri 09:33:22 AM 42.0000 -87.8833 200° South 128 147 900 -700 Descending Chicago TRACON
Fri 09:35:00 AM 41.9817 -87.9067 217° Southwest  Level Estimated

Login

Don't have an account? Register now (free) for customized features, flight alerts, and more!